sensor_id;sensor_type;location;lat;lon;timestamp;pressure;altitude;pressure_sealevel;temperature;humidity
32735;BME280;19112;51.076;3.706;2023-03-18T00:00:19;100423.06;;;14.07;70.46
32735;BME280;19112;51.076;3.706;2023-03-18T00:02:47;100662.50;;;15.45;70.76
32735;BME280;19112;51.076;3.706;2023-03-18T00:05:13;100535.59;;;14.67;70.82
32735;BME280;19112;51.076;3.706;2023-03-18T00:07:40;100431.88;;;14.08;70.88
32735;BME280;19112;51.076;3.706;2023-03-18T00:10:08;100180.53;;;12.75;70.62
32735;BME280;19112;51.076;3.706;2023-03-18T00:12:36;100433.69;;;14.12;71.16
32735;BME280;19112;51.076;3.706;2023-03-18T00:15:10;100485.00;;;14.35;71.71
32735;BME280;19112;51.076;3.706;2023-03-18T00:17:36;100704.00;;;15.51;72.53
32735;BME280;19112;51.076;3.706;2023-03-18T00:20:04;100638.41;;;15.22;73.05
32735;BME280;19112;51.076;3.706;2023-03-18T00:22:36;100339.56;;;13.41;73.48
32735;BME280;19112;51.076;3.706;2023-03-18T00:25:03;100385.47;;;13.57;74.25
32735;BME280;19112;51.076;3.706;2023-03-18T00:27:30;100623.00;;;14.84;74.73
32735;BME280;19112;51.076;3.706;2023-03-18T00:29:56;100693.91;;;15.17;75.00
32735;BME280;19112;51.076;3.706;2023-03-18T00:32:25;100622.94;;;14.80;75.34
32735;BME280;19112;51.076;3.706;2023-03-18T00:34:53;100689.41;;;15.10;76.14
32735;BME280;19112;51.076;3.706;2023-03-18T00:37:20;100595.28;;;14.50;76.17
32735;BME280;19112;51.076;3.706;2023-03-18T00:40:08;100616.69;;;14.70;76.08
32735;BME280;19112;51.076;3.706;2023-03-18T00:42:37;100605.94;;;14.59;76.31
32735;BME280;19112;51.076;3.706;2023-03-18T00:45:07;100602.41;;;14.56;76.67
32735;BME280;19112;51.076;3.706;2023-03-18T00:47:34;100498.69;;;14.02;76.73
32735;BME280;19112;51.076;3.706;2023-03-18T00:50:01;100598.75;;;14.48;77.17
32735;BME280;19112;51.076;3.706;2023-03-18T00:52:28;100688.41;;;15.01;77.29
32735;BME280;19112;51.076;3.706;2023-03-18T00:54:53;100439.97;;;13.56;77.23
32735;BME280;19112;51.076;3.706;2023-03-18T00:57:20;100385.00;;;13.22;77.28
32735;BME280;19112;51.076;3.706;2023-03-18T00:59:46;100702.56;;;15.03;77.55
32735;BME280;19112;51.076;3.706;2023-03-18T01:02:13;100722.91;;;15.08;77.80
32735;BME280;19112;51.076;3.706;2023-03-18T01:04:39;100620.03;;;14.58;77.59
32735;BME280;19112;51.076;3.706;2023-03-18T01:07:04;100510.06;;;13.98;77.54
32735;BME280;19112;51.076;3.706;2023-03-18T01:09:30;100702.56;;;15.06;77.64
32735;BME280;19112;51.076;3.706;2023-03-18T01:11:56;100604.91;;;14.48;77.75
32735;BME280;19112;51.076;3.706;2023-03-18T01:14:22;100694.50;;;14.97;78.14
32735;BME280;19112;51.076;3.706;2023-03-18T01:16:48;100622.66;;;14.58;78.04
32735;BME280;19112;51.076;3.706;2023-03-18T01:19:14;100559.72;;;14.27;78.09
32735;BME280;19112;51.076;3.706;2023-03-18T01:21:40;100713.13;;;15.04;78.31
32735;BME280;19112;51.076;3.706;2023-03-18T01:24:06;100697.22;;;15.00;78.37
32735;BME280;19112;51.076;3.706;2023-03-18T01:26:32;100563.13;;;14.20;78.12
32735;BME280;19112;51.076;3.706;2023-03-18T01:28:58;100697.16;;;14.95;78.47
32735;BME280;19112;51.076;3.706;2023-03-18T01:31:24;100697.28;;;15.04;78.38
32735;BME280;19112;51.076;3.706;2023-03-18T01:33:51;100524.19;;;14.02;78.19
32735;BME280;19112;51.076;3.706;2023-03-18T01:36:17;100445.22;;;13.53;78.14
32735;BME280;19112;51.076;3.706;2023-03-18T01:38:43;100643.94;;;14.66;78.33
32735;BME280;19112;51.076;3.706;2023-03-18T01:41:10;100508.84;;;13.75;78.22
32735;BME280;19112;51.076;3.706;2023-03-18T01:43:39;100380.41;;;13.11;78.22
32735;BME280;19112;51.076;3.706;2023-03-18T01:46:32;100688.28;;;14.90;78.31
32735;BME280;19112;51.076;3.706;2023-03-18T01:49:00;100657.91;;;14.59;78.51
32735;BME280;19112;51.076;3.706;2023-03-18T01:51:27;100529.22;;;13.85;78.54
32735;BME280;19112;51.076;3.706;2023-03-18T01:53:56;100493.84;;;13.71;78.69
32735;BME280;19112;51.076;3.706;2023-03-18T01:56:23;100262.34;;;12.30;78.53
32735;BME280;19112;51.076;3.706;2023-03-18T01:58:53;100430.94;;;13.39;78.44
32735;BME280;19112;51.076;3.706;2023-03-18T02:04:12;100456.63;;;13.52;78.66
32735;BME280;19112;51.076;3.706;2023-03-18T02:06:38;100673.09;;;14.75;78.94
32735;BME280;19112;51.076;3.706;2023-03-18T02:09:04;100344.91;;;12.88;78.73
32735;BME280;19112;51.076;3.706;2023-03-18T02:11:36;100401.69;;;13.22;78.72
32735;BME280;19112;51.076;3.706;2023-03-18T02:14:03;100680.09;;;14.70;78.71
32735;BME280;19112;51.076;3.706;2023-03-18T02:16:39;100685.34;;;14.68;78.64
32735;BME280;19112;51.076;3.706;2023-03-18T02:22:40;100682.75;;;14.73;78.56
32735;BME280;19112;51.076;3.706;2023-03-18T02:28:03;100618.66;;;14.26;78.71
32735;BME280;19112;51.076;3.706;2023-03-18T02:30:46;100680.78;;;14.58;78.69
32735;BME280;19112;51.076;3.706;2023-03-18T02:33:16;100685.06;;;14.49;78.85
32735;BME280;19112;51.076;3.706;2023-03-18T02:35:50;100423.22;;;12.98;78.89
32735;BME280;19112;51.076;3.706;2023-03-18T02:38:17;100684.22;;;14.51;79.01
32735;BME280;19112;51.076;3.706;2023-03-18T02:40:42;100695.66;;;14.50;79.08
32735;BME280;19112;51.076;3.706;2023-03-18T02:43:24;100605.16;;;14.04;78.97
32735;BME280;19112;51.076;3.706;2023-03-18T02:46:10;100646.09;;;14.34;78.75
32735;BME280;19112;51.076;3.706;2023-03-18T02:48:41;100398.38;;;12.81;78.87
32735;BME280;19112;51.076;3.706;2023-03-18T02:51:09;100613.03;;;14.01;78.88
32735;BME280;19112;51.076;3.706;2023-03-18T02:53:36;100706.25;;;14.53;78.94
32735;BME280;19112;51.076;3.706;2023-03-18T02:56:03;100702.81;;;14.57;78.94
32735;BME280;19112;51.076;3.706;2023-03-18T02:58:30;100649.53;;;14.30;78.87
32735;BME280;19112;51.076;3.706;2023-03-18T03:00:56;100564.25;;;13.75;78.71
32735;BME280;19112;51.076;3.706;2023-03-18T03:03:23;100443.41;;;12.95;78.48
32735;BME280;19112;51.076;3.706;2023-03-18T03:05:49;100505.41;;;13.26;78.63
32735;BME280;19112;51.076;3.706;2023-03-18T03:08:15;100303.09;;;12.03;78.47
32735;BME280;19112;51.076;3.706;2023-03-18T03:10:41;100711.22;;;14.33;78.62
32735;BME280;19112;51.076;3.706;2023-03-18T03:13:07;100660.56;;;14.01;79.03
32735;BME280;19112;51.076;3.706;2023-03-18T03:15:36;100617.06;;;13.79;78.61
32735;BME280;19112;51.076;3.706;2023-03-18T03:18:03;100711.25;;;14.35;78.60
32735;BME280;19112;51.076;3.706;2023-03-18T03:20:31;100360.53;;;12.26;78.46
32735;BME280;19112;51.076;3.706;2023-03-18T03:23:01;100636.50;;;13.83;78.56
32735;BME280;19112;51.076;3.706;2023-03-18T03:25:28;100655.03;;;13.87;78.82
32735;BME280;19112;51.076;3.706;2023-03-18T03:27:55;100701.16;;;14.09;78.67
32735;BME280;19112;51.076;3.706;2023-03-18T03:30:20;100704.72;;;14.11;78.69
32735;BME280;19112;51.076;3.706;2023-03-18T03:32:48;100550.00;;;13.14;78.43
32735;BME280;19112;51.076;3.706;2023-03-18T03:35:17;100497.41;;;12.73;78.55
32735;BME280;19112;51.076;3.706;2023-03-18T03:37:43;100494.66;;;12.65;78.71
32735;BME280;19112;51.076;3.706;2023-03-18T03:40:12;100666.72;;;13.50;79.17
32735;BME280;19112;51.076;3.706;2023-03-18T03:42:39;100665.59;;;13.38;79.02
32735;BME280;19112;51.076;3.706;2023-03-18T03:45:06;100685.91;;;13.43;79.29
32735;BME280;19112;51.076;3.706;2023-03-18T03:47:33;100733.63;;;13.55;79.81
32735;BME280;19112;51.076;3.706;2023-03-18T03:49:59;100702.34;;;13.30;80.06
32735;BME280;19112;51.076;3.706;2023-03-18T03:52:25;100746.59;;;13.45;80.16
32735;BME280;19112;51.076;3.706;2023-03-18T03:54:50;100397.69;;;11.57;80.07
32735;BME280;19112;51.076;3.706;2023-03-18T03:57:17;100527.41;;;12.36;80.43
32735;BME280;19112;51.076;3.706;2023-03-18T03:59:43;100630.38;;;12.90;80.15
32735;BME280;19112;51.076;3.706;2023-03-18T04:02:10;100546.97;;;12.47;79.91
32735;BME280;19112;51.076;3.706;2023-03-18T04:04:36;100416.38;;;11.70;80.13
32735;BME280;19112;51.076;3.706;2023-03-18T04:07:02;100563.00;;;12.57;79.67
32735;BME280;19112;51.076;3.706;2023-03-18T04:09:28;100580.00;;;12.73;79.62
32735;BME280;19112;51.076;3.706;2023-03-18T04:11:54;100706.09;;;13.41;79.51
32735;BME280;19112;51.076;3.706;2023-03-18T04:14:19;100446.59;;;11.88;79.17
32735;BME280;19112;51.076;3.706;2023-03-18T04:16:45;100558.53;;;12.55;79.05
32735;BME280;19112;51.076;3.706;2023-03-18T04:19:11;100713.88;;;13.35;79.17
32735;BME280;19112;51.076;3.706;2023-03-18T04:21:37;100387.94;;;11.51;79.21
32735;BME280;19112;51.076;3.706;2023-03-18T04:24:03;100496.66;;;11.92;79.29
32735;BME280;19112;51.076;3.706;2023-03-18T04:26:29;100654.00;;;12.85;79.59
32735;BME280;19112;51.076;3.706;2023-03-18T04:28:56;100506.34;;;11.93;79.77
32735;BME280;19112;51.076;3.706;2023-03-18T04:31:22;100637.75;;;12.64;79.60
32735;BME280;19112;51.076;3.706;2023-03-18T04:33:48;100645.75;;;12.69;79.90
32735;BME280;19112;51.076;3.706;2023-03-18T04:36:14;100447.66;;;11.57;79.61
32735;BME280;19112;51.076;3.706;2023-03-18T04:38:40;100662.19;;;12.58;80.07
32735;BME280;19112;51.076;3.706;2023-03-18T04:41:07;100396.72;;;11.14;79.60
32735;BME280;19112;51.076;3.706;2023-03-18T04:43:33;100662.97;;;12.54;80.00
32735;BME280;19112;51.076;3.706;2023-03-18T04:45:59;100654.94;;;12.47;80.42
32735;BME280;19112;51.076;3.706;2023-03-18T04:48:25;100644.28;;;12.42;80.18
32735;BME280;19112;51.076;3.706;2023-03-18T04:50:51;100623.75;;;12.26;79.92
32735;BME280;19112;51.076;3.706;2023-03-18T04:53:18;100649.69;;;12.48;80.06
32735;BME280;19112;51.076;3.706;2023-03-18T04:55:44;100740.19;;;12.93;80.25
32735;BME280;19112;51.076;3.706;2023-03-18T04:58:10;100487.75;;;11.48;80.16
32735;BME280;19112;51.076;3.706;2023-03-18T05:00:36;100755.13;;;12.92;79.94
32735;BME280;19112;51.076;3.706;2023-03-18T05:03:01;100370.22;;;10.68;80.21
32735;BME280;19112;51.076;3.706;2023-03-18T05:05:28;100743.34;;;12.75;80.25
32735;BME280;19112;51.076;3.706;2023-03-18T05:07:54;100646.34;;;12.18;80.50
32735;BME280;19112;51.076;3.706;2023-03-18T05:10:20;100402.88;;;10.80;80.16
32735;BME280;19112;51.076;3.706;2023-03-18T05:12:46;100679.19;;;12.33;80.37
32735;BME280;19112;51.076;3.706;2023-03-18T05:15:13;100618.66;;;11.97;80.40
32735;BME280;19112;51.076;3.706;2023-03-18T05:17:38;100679.81;;;12.23;80.55
32735;BME280;19112;51.076;3.706;2023-03-18T05:20:06;100654.00;;;12.07;80.80
32735;BME280;19112;51.076;3.706;2023-03-18T05:22:32;100543.66;;;11.41;80.75
32735;BME280;19112;51.076;3.706;2023-03-18T05:24:58;100535.28;;;11.22;80.97
32735;BME280;19112;51.076;3.706;2023-03-18T05:27:24;100714.25;;;12.32;81.24
32735;BME280;19112;51.076;3.706;2023-03-18T05:29:52;100567.50;;;11.48;81.19
32735;BME280;19112;51.076;3.706;2023-03-18T05:32:18;100767.50;;;12.57;81.46
32735;BME280;19112;51.076;3.706;2023-03-18T05:34:44;100439.47;;;10.72;81.20
32735;BME280;19112;51.076;3.706;2023-03-18T05:37:12;100700.59;;;12.13;81.50
32735;BME280;19112;51.076;3.706;2023-03-18T05:39:39;100761.97;;;12.46;81.75
32735;BME280;19112;51.076;3.706;2023-03-18T05:42:05;100428.59;;;10.58;81.54
32735;BME280;19112;51.076;3.706;2023-03-18T05:44:31;100630.66;;;11.85;81.57
32735;BME280;19112;51.076;3.706;2023-03-18T05:46:59;100496.19;;;11.00;82.13
32735;BME280;19112;51.076;3.706;2023-03-18T05:49:25;100430.75;;;10.74;81.90
32735;BME280;19112;51.076;3.706;2023-03-18T05:51:53;100621.88;;;11.84;82.15
32735;BME280;19112;51.076;3.706;2023-03-18T05:54:19;100645.97;;;12.01;81.93
32735;BME280;19112;51.076;3.706;2023-03-18T05:56:45;100703.97;;;12.42;81.84
32735;BME280;19112;51.076;3.706;2023-03-18T05:59:13;100504.50;;;11.17;81.61
32735;BME280;19112;51.076;3.706;2023-03-18T06:01:39;100461.34;;;11.07;81.44
32735;BME280;19112;51.076;3.706;2023-03-18T06:04:06;100691.72;;;12.45;81.38
32735;BME280;19112;51.076;3.706;2023-03-18T06:06:34;100630.50;;;12.15;80.75
32735;BME280;19112;51.076;3.706;2023-03-18T06:09:02;100721.25;;;12.68;81.06
32735;BME280;19112;51.076;3.706;2023-03-18T06:11:28;100459.03;;;11.19;80.70
32735;BME280;19112;51.076;3.706;2023-03-18T06:13:55;100174.53;;;9.71;80.20
32735;BME280;19112;51.076;3.706;2023-03-18T06:16:22;100760.13;;;13.21;80.76
32735;BME280;19112;51.076;3.706;2023-03-18T06:18:48;100770.88;;;13.28;80.33
32735;BME280;19112;51.076;3.706;2023-03-18T06:21:15;100769.91;;;13.25;80.05
32735;BME280;19112;51.076;3.706;2023-03-18T06:23:41;100784.56;;;13.12;79.79
32735;BME280;19112;51.076;3.706;2023-03-18T06:26:07;100312.16;;;10.55;79.13
32735;BME280;19112;51.076;3.706;2023-03-18T06:28:34;100444.31;;;11.26;79.34
32735;BME280;19112;51.076;3.706;2023-03-18T06:31:00;100781.03;;;13.11;79.71
32735;BME280;19112;51.076;3.706;2023-03-18T06:33:26;100664.41;;;12.40;79.21
32735;BME280;19112;51.076;3.706;2023-03-18T06:35:52;100499.38;;;11.58;79.43
32735;BME280;19112;51.076;3.706;2023-03-18T06:38:19;100548.38;;;11.55;79.24
32735;BME280;19112;51.076;3.706;2023-03-18T06:40:45;100522.25;;;11.62;79.06
32735;BME280;19112;51.076;3.706;2023-03-18T06:43:12;100693.69;;;12.54;79.88
32735;BME280;19112;51.076;3.706;2023-03-18T06:45:39;100415.41;;;10.90;79.43
32735;BME280;19112;51.076;3.706;2023-03-18T06:48:06;100140.69;;;9.14;79.42
32735;BME280;19112;51.076;3.706;2023-03-18T06:50:33;100776.69;;;13.14;79.56
32735;BME280;19112;51.076;3.706;2023-03-18T06:52:59;100437.81;;;11.12;79.09
32735;BME280;19112;51.076;3.706;2023-03-18T06:55:25;100670.66;;;12.45;79.50
32735;BME280;19112;51.076;3.706;2023-03-18T06:57:53;100792.34;;;13.07;79.56
32735;BME280;19112;51.076;3.706;2023-03-18T07:00:19;100791.38;;;13.02;79.57
32735;BME280;19112;51.076;3.706;2023-03-18T07:02:47;100801.13;;;13.06;79.66
32735;BME280;19112;51.076;3.706;2023-03-18T07:05:13;100466.59;;;11.07;79.30
32735;BME280;19112;51.076;3.706;2023-03-18T07:07:40;100229.00;;;9.84;79.33
32735;BME280;19112;51.076;3.706;2023-03-18T07:10:17;100789.97;;;13.18;79.29
32735;BME280;19112;51.076;3.706;2023-03-18T07:12:43;100596.06;;;12.05;79.48
32735;BME280;19112;51.076;3.706;2023-03-18T07:15:10;100160.75;;;9.45;78.98
32735;BME280;19112;51.076;3.706;2023-03-18T07:17:36;100568.81;;;12.03;78.99
32735;BME280;19112;51.076;3.706;2023-03-18T07:20:02;100592.06;;;12.23;78.62
32735;BME280;19112;51.076;3.706;2023-03-18T07:22:30;100515.63;;;11.79;78.50
32735;BME280;19112;51.076;3.706;2023-03-18T07:24:56;100802.00;;;13.46;78.56
32735;BME280;19112;51.076;3.706;2023-03-18T07:27:23;100815.25;;;13.49;78.42
32735;BME280;19112;51.076;3.706;2023-03-18T07:29:49;100790.13;;;13.24;77.72
32735;BME280;19112;51.076;3.706;2023-03-18T07:32:15;100528.97;;;11.85;77.52
32735;BME280;19112;51.076;3.706;2023-03-18T07:34:41;100824.19;;;13.57;77.92
32735;BME280;19112;51.076;3.706;2023-03-18T07:37:07;100823.19;;;13.49;77.69
32735;BME280;19112;51.076;3.706;2023-03-18T07:39:33;100141.78;;;9.55;77.87
32735;BME280;19112;51.076;3.706;2023-03-18T07:41:59;100513.00;;;11.77;77.96
32735;BME280;19112;51.076;3.706;2023-03-18T07:44:25;100300.97;;;10.63;78.02
32735;BME280;19112;51.076;3.706;2023-03-18T07:46:51;100500.78;;;11.81;78.27
32735;BME280;19112;51.076;3.706;2023-03-18T07:49:17;100516.88;;;11.93;77.94
32735;BME280;19112;51.076;3.706;2023-03-18T07:51:43;100829.41;;;13.98;77.62
32735;BME280;19112;51.076;3.706;2023-03-18T07:54:08;100832.28;;;14.10;77.23
32735;BME280;19112;51.076;3.706;2023-03-18T07:56:34;100856.94;;;14.11;77.06
32735;BME280;19112;51.076;3.706;2023-03-18T07:59:00;100312.44;;;11.05;76.51
32735;BME280;19112;51.076;3.706;2023-03-18T08:01:26;100622.81;;;13.07;76.68
32735;BME280;19112;51.076;3.706;2023-03-18T08:03:52;100574.19;;;12.93;76.80
32735;BME280;19112;51.076;3.706;2023-03-18T08:06:18;100704.34;;;13.90;75.72
32735;BME280;19112;51.076;3.706;2023-03-18T08:08:44;100834.50;;;14.87;75.68
32735;BME280;19112;51.076;3.706;2023-03-18T08:11:10;100754.56;;;14.46;74.41
32735;BME280;19112;51.076;3.706;2023-03-18T08:13:37;100833.88;;;15.05;74.42
32735;BME280;19112;51.076;3.706;2023-03-18T08:16:04;100575.38;;;13.57;73.91
32735;BME280;19112;51.076;3.706;2023-03-18T08:18:30;100720.41;;;14.57;73.40
32735;BME280;19112;51.076;3.706;2023-03-18T08:20:56;100760.50;;;14.89;73.08
32735;BME280;19112;51.076;3.706;2023-03-18T08:23:22;100559.97;;;13.83;72.42
32735;BME280;19112;51.076;3.706;2023-03-18T08:25:49;100812.22;;;15.34;72.17
32735;BME280;19112;51.076;3.706;2023-03-18T08:28:17;100615.97;;;14.21;71.70
32735;BME280;19112;51.076;3.706;2023-03-18T08:30:43;100724.41;;;14.91;71.39
32735;BME280;19112;51.076;3.706;2023-03-18T08:33:09;100787.59;;;15.35;71.14
32735;BME280;19112;51.076;3.706;2023-03-18T08:35:35;100491.22;;;13.74;70.35
32735;BME280;19112;51.076;3.706;2023-03-18T08:38:03;100790.28;;;15.39;70.36
32735;BME280;19112;51.076;3.706;2023-03-18T08:40:29;100636.69;;;14.53;70.29
32735;BME280;19112;51.076;3.706;2023-03-18T08:42:55;100862.31;;;15.87;70.19
32735;BME280;19112;51.076;3.706;2023-03-18T08:45:21;100795.59;;;15.42;70.13
32735;BME280;19112;51.076;3.706;2023-03-18T08:47:47;100883.31;;;15.70;70.08
32735;BME280;19112;51.076;3.706;2023-03-18T08:50:13;100887.66;;;15.65;70.26
32735;BME280;19112;51.076;3.706;2023-03-18T08:52:40;100557.34;;;13.84;70.10
32735;BME280;19112;51.076;3.706;2023-03-18T08:55:07;100851.19;;;15.44;70.45
32735;BME280;19112;51.076;3.706;2023-03-18T08:57:34;100701.84;;;14.52;70.81
32735;BME280;19112;51.076;3.706;2023-03-18T09:00:00;100713.34;;;14.54;70.74
32735;BME280;19112;51.076;3.706;2023-03-18T09:02:26;100879.47;;;15.48;70.75
32735;BME280;19112;51.076;3.706;2023-03-18T09:04:53;100793.19;;;14.92;71.02
32735;BME280;19112;51.076;3.706;2023-03-18T09:07:20;100549.06;;;13.58;71.16
32735;BME280;19112;51.076;3.706;2023-03-18T09:09:46;100874.97;;;15.41;71.68
32735;BME280;19112;51.076;3.706;2023-03-18T09:12:12;100649.22;;;14.08;72.27
32735;BME280;19112;51.076;3.706;2023-03-18T09:14:40;100874.88;;;15.35;73.10
32735;BME280;19112;51.076;3.706;2023-03-18T09:17:07;100467.13;;;12.96;73.07
32735;BME280;19112;51.076;3.706;2023-03-18T09:19:33;100679.22;;;14.13;73.98
32735;BME280;19112;51.076;3.706;2023-03-18T09:21:59;100583.44;;;13.66;74.14
32735;BME280;19112;51.076;3.706;2023-03-18T09:24:25;100780.69;;;14.82;74.75
32735;BME280;19112;51.076;3.706;2023-03-18T09:26:51;100071.75;;;10.63;74.38
32735;BME280;19112;51.076;3.706;2023-03-18T09:29:17;100777.41;;;15.00;74.59
32735;BME280;19112;51.076;3.706;2023-03-18T09:31:43;100784.53;;;15.06;74.98
32735;BME280;19112;51.076;3.706;2023-03-18T09:34:09;100410.06;;;12.98;74.87
32735;BME280;19112;51.076;3.706;2023-03-18T09:36:38;100822.19;;;15.50;75.07
32735;BME280;19112;51.076;3.706;2023-03-18T09:39:04;100863.13;;;15.78;75.11
32735;BME280;19112;51.076;3.706;2023-03-18T09:44:31;100820.72;;;15.75;74.40
32735;BME280;19112;51.076;3.706;2023-03-18T09:50:35;100838.63;;;15.96;73.69
32735;BME280;19112;51.076;3.706;2023-03-18T09:55:56;100879.38;;;16.10;73.24
32735;BME280;19112;51.076;3.706;2023-03-18T09:58:39;100883.00;;;16.17;73.32
32735;BME280;19112;51.076;3.706;2023-03-18T10:01:12;100588.41;;;14.64;72.66
32735;BME280;19112;51.076;3.706;2023-03-18T10:04:08;100732.16;;;15.47;72.03
32735;BME280;19112;51.076;3.706;2023-03-18T10:06:37;100693.31;;;15.41;72.54
32735;BME280;19112;51.076;3.706;2023-03-18T10:09:35;100794.88;;;16.38;72.25
32735;BME280;19112;51.076;3.706;2023-03-18T10:12:32;100828.94;;;16.94;72.00
32735;BME280;19112;51.076;3.706;2023-03-18T10:18:09;100640.19;;;16.17;70.72
32735;BME280;19112;51.076;3.706;2023-03-18T10:26:41;100767.31;;;17.53;68.46
32735;BME280;19112;51.076;3.706;2023-03-18T10:32:02;100607.72;;;16.54;66.53
32735;BME280;19112;51.076;3.706;2023-03-18T10:40:19;100791.06;;;17.25;67.36
32735;BME280;19112;51.076;3.706;2023-03-18T10:42:47;100776.88;;;17.11;67.65
32735;BME280;19112;51.076;3.706;2023-03-18T10:45:32;100683.72;;;16.61;67.58
32735;BME280;19112;51.076;3.706;2023-03-18T10:50:37;100534.66;;;15.54;67.52
32735;BME280;19112;51.076;3.706;2023-03-18T10:56:11;100563.00;;;15.65;66.93
32735;BME280;19112;51.076;3.706;2023-03-18T10:58:39;100724.31;;;16.49;67.37
32735;BME280;19112;51.076;3.706;2023-03-18T11:01:09;100800.66;;;16.94;67.59
32735;BME280;19112;51.076;3.706;2023-03-18T11:04:15;100857.47;;;17.33;67.34
32735;BME280;19112;51.076;3.706;2023-03-18T11:07:02;100859.25;;;17.36;66.42
32735;BME280;19112;51.076;3.706;2023-03-18T11:09:35;100856.59;;;17.33;66.02
32735;BME280;19112;51.076;3.706;2023-03-18T11:12:04;100724.31;;;16.49;66.01
32735;BME280;19112;51.076;3.706;2023-03-18T11:14:32;100228.16;;;13.60;65.96
32735;BME280;19112;51.076;3.706;2023-03-18T11:17:05;100851.25;;;17.26;66.46
32735;BME280;19112;51.076;3.706;2023-03-18T11:20:13;100782.97;;;16.98;65.41
32735;BME280;19112;51.076;3.706;2023-03-18T11:22:48;100735.22;;;16.95;65.26
32735;BME280;19112;51.076;3.706;2023-03-18T11:25:24;100557.97;;;16.02;64.09
32735;BME280;19112;51.076;3.706;2023-03-18T11:28:11;100799.25;;;17.70;63.53
32735;BME280;19112;51.076;3.706;2023-03-18T11:30:47;100510.47;;;16.33;62.01
32735;BME280;19112;51.076;3.706;2023-03-18T11:33:15;100700.09;;;17.60;61.33
32735;BME280;19112;51.076;3.706;2023-03-18T11:35:53;100642.53;;;17.50;60.67
32735;BME280;19112;51.076;3.706;2023-03-18T11:38:31;100656.72;;;17.70;60.15
32735;BME280;19112;51.076;3.706;2023-03-18T11:41:22;100678.91;;;17.98;60.22
32735;BME280;19112;51.076;3.706;2023-03-18T11:44:16;100828.63;;;19.04;59.41
32735;BME280;19112;51.076;3.706;2023-03-18T11:47:09;100735.56;;;18.51;59.09
32735;BME280;19112;51.076;3.706;2023-03-18T11:49:37;100789.66;;;18.80;58.51
32735;BME280;19112;51.076;3.706;2023-03-18T12:01:41;100832.13;;;19.25;58.23
32735;BME280;19112;51.076;3.706;2023-03-18T12:04:36;100832.22;;;18.87;57.44
32735;BME280;19112;51.076;3.706;2023-03-18T12:07:46;100663.88;;;18.02;57.86
32735;BME280;19112;51.076;3.706;2023-03-18T12:10:50;100833.94;;;19.09;57.54
32735;BME280;19112;51.076;3.706;2023-03-18T12:16:21;100765.69;;;18.83;56.52
32735;BME280;19112;51.076;3.706;2023-03-18T12:28:27;100740.00;;;18.76;54.96
32735;BME280;19112;51.076;3.706;2023-03-18T12:33:52;100823.16;;;19.55;54.77
32735;BME280;19112;51.076;3.706;2023-03-18T12:36:59;100831.03;;;19.88;54.26
32735;BME280;19112;51.076;3.706;2023-03-18T12:45:29;100660.16;;;18.96;51.44
32735;BME280;19112;51.076;3.706;2023-03-18T12:48:53;100818.50;;;20.04;51.03
32735;BME280;19112;51.076;3.706;2023-03-18T12:51:02;100717.47;;;19.58;51.26
32735;BME280;19112;51.076;3.706;2023-03-18T12:53:34;100542.31;;;18.64;51.08
32735;BME280;19112;51.076;3.706;2023-03-18T12:56:28;100814.66;;;20.44;51.25
32735;BME280;19112;51.076;3.706;2023-03-18T12:59:23;100714.56;;;20.03;50.47
32735;BME280;19112;51.076;3.706;2023-03-18T13:02:27;100820.75;;;20.67;49.91
32735;BME280;19112;51.076;3.706;2023-03-18T13:05:02;100715.34;;;20.12;48.80
32735;BME280;19112;51.076;3.706;2023-03-18T13:07:42;100629.66;;;19.51;48.98
32735;BME280;19112;51.076;3.706;2023-03-18T13:10:22;100686.38;;;19.73;48.91
32735;BME280;19112;51.076;3.706;2023-03-18T13:12:53;100740.09;;;20.28;48.95
32735;BME280;19112;51.076;3.706;2023-03-18T13:15:31;100803.72;;;20.79;49.24
32735;BME280;19112;51.076;3.706;2023-03-18T13:18:11;100735.38;;;20.64;48.47
32735;BME280;19112;51.076;3.706;2023-03-18T13:20:40;100716.25;;;20.13;47.96
32735;BME280;19112;51.076;3.706;2023-03-18T13:27:04;100794.09;;;20.61;48.80
32735;BME280;19112;51.076;3.706;2023-03-18T13:30:02;100578.38;;;19.24;48.68
32735;BME280;19112;51.076;3.706;2023-03-18T13:36:07;100737.53;;;20.19;48.45
32735;BME280;19112;51.076;3.706;2023-03-18T13:41:50;100783.72;;;20.18;48.32
32735;BME280;19112;51.076;3.706;2023-03-18T13:44:26;100619.25;;;19.06;49.18
32735;BME280;19112;51.076;3.706;2023-03-18T13:47:00;100768.84;;;19.93;49.03
32735;BME280;19112;51.076;3.706;2023-03-18T13:49:30;100610.34;;;19.18;48.96
32735;BME280;19112;51.076;3.706;2023-03-18T13:51:59;100297.50;;;17.47;48.65
32735;BME280;19112;51.076;3.706;2023-03-18T13:54:36;100751.66;;;20.29;48.22
32735;BME280;19112;51.076;3.706;2023-03-18T13:57:33;100584.44;;;19.45;48.26
32735;BME280;19112;51.076;3.706;2023-03-18T14:00:24;100686.94;;;20.14;47.68
32735;BME280;19112;51.076;3.706;2023-03-18T14:03:17;100784.13;;;20.81;47.50
32735;BME280;19112;51.076;3.706;2023-03-18T14:05:49;100743.63;;;20.36;47.17
32735;BME280;19112;51.076;3.706;2023-03-18T14:13:57;100580.19;;;19.19;47.39
32735;BME280;19112;51.076;3.706;2023-03-18T14:19:25;100742.00;;;20.12;47.85
32735;BME280;19112;51.076;3.706;2023-03-18T14:22:33;100439.75;;;18.23;48.13
32735;BME280;19112;51.076;3.706;2023-03-18T14:27:46;100770.47;;;20.10;48.60
32735;BME280;19112;51.076;3.706;2023-03-18T14:33:04;100642.22;;;19.27;48.50
32735;BME280;19112;51.076;3.706;2023-03-18T14:35:49;100683.00;;;19.40;48.60
32735;BME280;19112;51.076;3.706;2023-03-18T14:38:34;100473.41;;;18.18;49.62
32735;BME280;19112;51.076;3.706;2023-03-18T14:41:16;100752.00;;;19.81;49.30
32735;BME280;19112;51.076;3.706;2023-03-18T14:46:43;100756.56;;;19.59;49.31